sensor_id;sensor_type;location;lat;lon;timestamp;temperature;humidity
2012;DHT22;1009;51.436;6.972;2022-09-09T00:01:03;16.40;99.90
2012;DHT22;1009;51.436;6.972;2022-09-09T00:03:37;16.50;99.90
2012;DHT22;1009;51.436;6.972;2022-09-09T00:06:10;16.50;99.90
2012;DHT22;1009;51.436;6.972;2022-09-09T00:08:53;16.50;99.90
2012;DHT22;1009;51.436;6.972;2022-09-09T00:11:26;16.50;99.90
2012;DHT22;1009;51.436;6.972;2022-09-09T00:13:57;16.50;99.90
2012;DHT22;1009;51.436;6.972;2022-09-09T00:16:34;16.40;99.90
2012;DHT22;1009;51.436;6.972;2022-09-09T00:19:07;16.30;99.90
2012;DHT22;1009;51.436;6.972;2022-09-09T00:21:36;16.30;99.90
2012;DHT22;1009;51.436;6.972;2022-09-09T00:24:10;16.30;99.90
2012;DHT22;1009;51.436;6.972;2022-09-09T00:26:42;16.30;99.90
2012;DHT22;1009;51.436;6.972;2022-09-09T00:29:17;16.30;99.90
2012;DHT22;1009;51.436;6.972;2022-09-09T00:31:50;16.30;99.90
2012;DHT22;1009;51.436;6.972;2022-09-09T00:34:23;16.30;99.90
2012;DHT22;1009;51.436;6.972;2022-09-09T00:36:52;16.40;99.90
2012;DHT22;1009;51.436;6.972;2022-09-09T00:39:27;16.40;99.90
2012;DHT22;1009;51.436;6.972;2022-09-09T00:42:05;16.30;99.90
2012;DHT22;1009;51.436;6.972;2022-09-09T00:44:38;16.40;99.90
2012;DHT22;1009;51.436;6.972;2022-09-09T00:47:17;16.40;99.90
2012;DHT22;1009;51.436;6.972;2022-09-09T00:49:57;16.40;99.90
2012;DHT22;1009;51.436;6.972;2022-09-09T00:52:33;16.40;99.90
2012;DHT22;1009;51.436;6.972;2022-09-09T00:55:12;16.40;99.90
2012;DHT22;1009;51.436;6.972;2022-09-09T00:57:40;16.50;99.90
2012;DHT22;1009;51.436;6.972;2022-09-09T01:00:26;16.50;99.90
2012;DHT22;1009;51.436;6.972;2022-09-09T01:03:06;16.50;99.90
2012;DHT22;1009;51.436;6.972;2022-09-09T01:05:41;16.50;99.90
2012;DHT22;1009;51.436;6.972;2022-09-09T01:08:18;16.60;99.90
2012;DHT22;1009;51.436;6.972;2022-09-09T01:10:50;16.60;99.90
2012;DHT22;1009;51.436;6.972;2022-09-09T01:13:22;16.60;99.90
2012;DHT22;1009;51.436;6.972;2022-09-09T01:15:50;16.60;99.90
2012;DHT22;1009;51.436;6.972;2022-09-09T01:18:22;16.60;99.90
2012;DHT22;1009;51.436;6.972;2022-09-09T01:20:58;16.60;99.90
2012;DHT22;1009;51.436;6.972;2022-09-09T01:23:41;16.60;99.90
2012;DHT22;1009;51.436;6.972;2022-09-09T01:26:15;16.60;99.90
2012;DHT22;1009;51.436;6.972;2022-09-09T01:28:45;16.70;99.90
2012;DHT22;1009;51.436;6.972;2022-09-09T01:31:17;16.70;99.90
2012;DHT22;1009;51.436;6.972;2022-09-09T01:33:47;16.70;99.90
2012;DHT22;1009;51.436;6.972;2022-09-09T01:36:20;16.70;99.90
2012;DHT22;1009;51.436;6.972;2022-09-09T01:38:48;16.60;99.90
2012;DHT22;1009;51.436;6.972;2022-09-09T01:41:17;16.60;99.90
2012;DHT22;1009;51.436;6.972;2022-09-09T01:43:44;16.60;99.90
2012;DHT22;1009;51.436;6.972;2022-09-09T01:46:12;16.60;99.90
2012;DHT22;1009;51.436;6.972;2022-09-09T01:48:42;16.60;99.90
2012;DHT22;1009;51.436;6.972;2022-09-09T01:51:09;16.50;99.90
2012;DHT22;1009;51.436;6.972;2022-09-09T01:53:37;16.50;99.90
2012;DHT22;1009;51.436;6.972;2022-09-09T01:56:13;16.40;99.90
2012;DHT22;1009;51.436;6.972;2022-09-09T01:58:53;16.40;99.90
2012;DHT22;1009;51.436;6.972;2022-09-09T02:01:28;16.40;99.90
2012;DHT22;1009;51.436;6.972;2022-09-09T02:03:59;16.40;99.90
2012;DHT22;1009;51.436;6.972;2022-09-09T02:06:31;16.40;99.90
2012;DHT22;1009;51.436;6.972;2022-09-09T02:09:03;16.40;99.90
2012;DHT22;1009;51.436;6.972;2022-09-09T02:11:31;16.40;99.90
2012;DHT22;1009;51.436;6.972;2022-09-09T02:14:02;16.30;99.90
2012;DHT22;1009;51.436;6.972;2022-09-09T02:16:36;16.30;99.90
2012;DHT22;1009;51.436;6.972;2022-09-09T02:19:07;16.30;99.90
2012;DHT22;1009;51.436;6.972;2022-09-09T02:21:40;16.30;99.90
2012;DHT22;1009;51.436;6.972;2022-09-09T02:24:09;16.40;99.90
2012;DHT22;1009;51.436;6.972;2022-09-09T02:26:39;16.50;99.90
2012;DHT22;1009;51.436;6.972;2022-09-09T02:29:12;16.50;99.90
2012;DHT22;1009;51.436;6.972;2022-09-09T02:31:41;16.60;99.90
2012;DHT22;1009;51.436;6.972;2022-09-09T02:34:10;16.50;99.90
2012;DHT22;1009;51.436;6.972;2022-09-09T02:36:41;16.50;99.90
2012;DHT22;1009;51.436;6.972;2022-09-09T02:39:10;16.60;99.90
2012;DHT22;1009;51.436;6.972;2022-09-09T02:41:39;16.60;99.90
2012;DHT22;1009;51.436;6.972;2022-09-09T02:44:10;16.60;99.90
2012;DHT22;1009;51.436;6.972;2022-09-09T02:46:58;16.60;99.90
2012;DHT22;1009;51.436;6.972;2022-09-09T02:49:32;16.60;99.90
2012;DHT22;1009;51.436;6.972;2022-09-09T02:52:06;16.60;99.90
2012;DHT22;1009;51.436;6.972;2022-09-09T02:54:35;16.60;99.90
2012;DHT22;1009;51.436;6.972;2022-09-09T02:57:06;16.60;99.90
2012;DHT22;1009;51.436;6.972;2022-09-09T02:59:36;16.60;99.90
2012;DHT22;1009;51.436;6.972;2022-09-09T03:02:03;16.60;99.90
2012;DHT22;1009;51.436;6.972;2022-09-09T03:04:30;16.60;99.90
2012;DHT22;1009;51.436;6.972;2022-09-09T03:06:58;16.60;99.90
2012;DHT22;1009;51.436;6.972;2022-09-09T03:09:25;16.50;99.90
2012;DHT22;1009;51.436;6.972;2022-09-09T03:11:52;16.50;99.90
2012;DHT22;1009;51.436;6.972;2022-09-09T03:14:20;16.50;99.90
2012;DHT22;1009;51.436;6.972;2022-09-09T03:16:51;16.50;99.90
2012;DHT22;1009;51.436;6.972;2022-09-09T03:19:21;16.50;99.90
2012;DHT22;1009;51.436;6.972;2022-09-09T03:21:49;16.50;99.90
2012;DHT22;1009;51.436;6.972;2022-09-09T03:24:16;16.50;99.90
2012;DHT22;1009;51.436;6.972;2022-09-09T03:26:43;16.50;99.90
2012;DHT22;1009;51.436;6.972;2022-09-09T03:29:11;16.50;99.90
2012;DHT22;1009;51.436;6.972;2022-09-09T03:31:39;16.60;99.90
2012;DHT22;1009;51.436;6.972;2022-09-09T03:34:07;16.60;99.90
2012;DHT22;1009;51.436;6.972;2022-09-09T03:36:34;16.50;99.90
2012;DHT22;1009;51.436;6.972;2022-09-09T03:39:01;16.50;99.90
2012;DHT22;1009;51.436;6.972;2022-09-09T03:41:29;16.50;99.90
2012;DHT22;1009;51.436;6.972;2022-09-09T03:43:56;16.50;99.90
2012;DHT22;1009;51.436;6.972;2022-09-09T03:46:24;16.50;99.90
2012;DHT22;1009;51.436;6.972;2022-09-09T03:48:51;16.60;99.90
2012;DHT22;1009;51.436;6.972;2022-09-09T03:51:20;16.50;99.90
2012;DHT22;1009;51.436;6.972;2022-09-09T03:53:47;16.50;99.90
2012;DHT22;1009;51.436;6.972;2022-09-09T03:56:14;16.50;99.90
2012;DHT22;1009;51.436;6.972;2022-09-09T03:58:41;16.60;99.90
2012;DHT22;1009;51.436;6.972;2022-09-09T04:01:10;16.60;99.90
2012;DHT22;1009;51.436;6.972;2022-09-09T04:03:39;16.60;99.90
2012;DHT22;1009;51.436;6.972;2022-09-09T04:06:07;16.60;99.90
2012;DHT22;1009;51.436;6.972;2022-09-09T04:08:36;16.60;99.90
2012;DHT22;1009;51.436;6.972;2022-09-09T04:11:04;16.60;99.90
2012;DHT22;1009;51.436;6.972;2022-09-09T04:13:31;16.60;99.90
2012;DHT22;1009;51.436;6.972;2022-09-09T04:16:01;16.60;99.90
2012;DHT22;1009;51.436;6.972;2022-09-09T04:18:29;16.60;99.90
2012;DHT22;1009;51.436;6.972;2022-09-09T04:20:57;16.60;99.90
2012;DHT22;1009;51.436;6.972;2022-09-09T04:23:24;16.50;99.90
2012;DHT22;1009;51.436;6.972;2022-09-09T04:25:54;16.50;99.90
2012;DHT22;1009;51.436;6.972;2022-09-09T04:28:23;16.50;99.90
2012;DHT22;1009;51.436;6.972;2022-09-09T04:30:50;16.50;99.90
2012;DHT22;1009;51.436;6.972;2022-09-09T04:33:18;16.50;99.90
2012;DHT22;1009;51.436;6.972;2022-09-09T04:35:46;16.40;99.90
2012;DHT22;1009;51.436;6.972;2022-09-09T04:38:14;16.50;99.90
2012;DHT22;1009;51.436;6.972;2022-09-09T04:40:42;16.50;99.90
2012;DHT22;1009;51.436;6.972;2022-09-09T04:43:11;16.60;99.90
2012;DHT22;1009;51.436;6.972;2022-09-09T04:45:38;16.50;99.90
2012;DHT22;1009;51.436;6.972;2022-09-09T04:48:06;16.50;99.90
2012;DHT22;1009;51.436;6.972;2022-09-09T04:50:33;16.50;99.90
2012;DHT22;1009;51.436;6.972;2022-09-09T04:53:00;16.60;99.90
2012;DHT22;1009;51.436;6.972;2022-09-09T04:55:28;16.50;99.90
2012;DHT22;1009;51.436;6.972;2022-09-09T04:57:57;16.60;99.90
2012;DHT22;1009;51.436;6.972;2022-09-09T05:00:25;16.60;99.90
2012;DHT22;1009;51.436;6.972;2022-09-09T05:02:52;16.50;99.90
2012;DHT22;1009;51.436;6.972;2022-09-09T05:05:19;16.50;99.90
2012;DHT22;1009;51.436;6.972;2022-09-09T05:07:45;16.50;99.90
2012;DHT22;1009;51.436;6.972;2022-09-09T05:10:13;16.60;99.90
2012;DHT22;1009;51.436;6.972;2022-09-09T05:12:55;16.50;99.90
2012;DHT22;1009;51.436;6.972;2022-09-09T05:15:22;16.50;99.90
2012;DHT22;1009;51.436;6.972;2022-09-09T05:17:50;16.50;99.90
2012;DHT22;1009;51.436;6.972;2022-09-09T05:20:21;16.60;99.90
2012;DHT22;1009;51.436;6.972;2022-09-09T05:22:53;16.60;99.90
2012;DHT22;1009;51.436;6.972;2022-09-09T05:25:20;16.70;99.90
2012;DHT22;1009;51.436;6.972;2022-09-09T05:27:48;16.70;99.90
2012;DHT22;1009;51.436;6.972;2022-09-09T05:30:15;16.80;99.90
2012;DHT22;1009;51.436;6.972;2022-09-09T05:32:42;16.70;99.90
2012;DHT22;1009;51.436;6.972;2022-09-09T05:35:10;16.80;99.90
2012;DHT22;1009;51.436;6.972;2022-09-09T05:37:37;16.80;99.90
2012;DHT22;1009;51.436;6.972;2022-09-09T05:40:04;16.80;99.90
2012;DHT22;1009;51.436;6.972;2022-09-09T05:42:32;16.80;99.90
2012;DHT22;1009;51.436;6.972;2022-09-09T05:44:59;16.90;99.90
2012;DHT22;1009;51.436;6.972;2022-09-09T05:47:25;16.90;99.90
2012;DHT22;1009;51.436;6.972;2022-09-09T05:49:53;17.00;99.90
2012;DHT22;1009;51.436;6.972;2022-09-09T05:52:23;17.00;99.90
2012;DHT22;1009;51.436;6.972;2022-09-09T05:54:52;17.00;99.90
2012;DHT22;1009;51.436;6.972;2022-09-09T05:57:20;17.00;99.90
2012;DHT22;1009;51.436;6.972;2022-09-09T05:59:47;17.10;99.90
2012;DHT22;1009;51.436;6.972;2022-09-09T06:02:15;17.00;99.90
2012;DHT22;1009;51.436;6.972;2022-09-09T06:04:42;17.00;99.90
2012;DHT22;1009;51.436;6.972;2022-09-09T06:07:08;17.10;99.90
2012;DHT22;1009;51.436;6.972;2022-09-09T06:09:37;17.10;99.90
2012;DHT22;1009;51.436;6.972;2022-09-09T06:12:04;17.10;99.90
2012;DHT22;1009;51.436;6.972;2022-09-09T06:14:31;17.10;99.90
2012;DHT22;1009;51.436;6.972;2022-09-09T06:16:57;17.20;99.90
2012;DHT22;1009;51.436;6.972;2022-09-09T06:19:24;17.20;99.90
2012;DHT22;1009;51.436;6.972;2022-09-09T06:21:52;17.20;99.90
2012;DHT22;1009;51.436;6.972;2022-09-09T06:24:20;17.20;99.90
2012;DHT22;1009;51.436;6.972;2022-09-09T06:26:49;17.20;99.90
2012;DHT22;1009;51.436;6.972;2022-09-09T06:29:15;17.20;99.90
2012;DHT22;1009;51.436;6.972;2022-09-09T06:31:42;17.20;99.90
2012;DHT22;1009;51.436;6.972;2022-09-09T06:34:09;17.20;99.90
2012;DHT22;1009;51.436;6.972;2022-09-09T06:36:37;17.20;99.90
2012;DHT22;1009;51.436;6.972;2022-09-09T06:39:05;17.30;99.90
2012;DHT22;1009;51.436;6.972;2022-09-09T06:41:32;17.20;99.90
2012;DHT22;1009;51.436;6.972;2022-09-09T06:44:01;17.20;99.90
2012;DHT22;1009;51.436;6.972;2022-09-09T06:46:29;17.20;99.90
2012;DHT22;1009;51.436;6.972;2022-09-09T06:48:59;17.20;99.90
2012;DHT22;1009;51.436;6.972;2022-09-09T06:51:27;17.20;99.90
2012;DHT22;1009;51.436;6.972;2022-09-09T06:53:55;17.20;99.90
2012;DHT22;1009;51.436;6.972;2022-09-09T06:56:24;17.20;99.90
2012;DHT22;1009;51.436;6.972;2022-09-09T06:58:54;17.30;99.90
2012;DHT22;1009;51.436;6.972;2022-09-09T07:01:24;17.30;99.90
2012;DHT22;1009;51.436;6.972;2022-09-09T07:03:53;17.30;99.90
2012;DHT22;1009;51.436;6.972;2022-09-09T07:06:21;17.40;99.90
2012;DHT22;1009;51.436;6.972;2022-09-09T07:08:50;17.50;99.90
2012;DHT22;1009;51.436;6.972;2022-09-09T07:11:21;17.60;99.90
2012;DHT22;1009;51.436;6.972;2022-09-09T07:13:49;17.60;99.90
2012;DHT22;1009;51.436;6.972;2022-09-09T07:16:19;17.70;99.90
2012;DHT22;1009;51.436;6.972;2022-09-09T07:18:47;17.90;99.90
2012;DHT22;1009;51.436;6.972;2022-09-09T07:21:16;17.90;99.90
2012;DHT22;1009;51.436;6.972;2022-09-09T07:23:46;18.00;99.90
2012;DHT22;1009;51.436;6.972;2022-09-09T07:26:14;18.00;99.90
2012;DHT22;1009;51.436;6.972;2022-09-09T07:28:42;18.10;99.90
2012;DHT22;1009;51.436;6.972;2022-09-09T07:31:14;18.20;99.90
2012;DHT22;1009;51.436;6.972;2022-09-09T07:33:42;18.30;99.90
2012;DHT22;1009;51.436;6.972;2022-09-09T07:36:14;18.40;99.90
2012;DHT22;1009;51.436;6.972;2022-09-09T07:38:42;18.50;99.90
2012;DHT22;1009;51.436;6.972;2022-09-09T07:41:12;18.70;99.90
2012;DHT22;1009;51.436;6.972;2022-09-09T07:43:40;18.80;99.90
2012;DHT22;1009;51.436;6.972;2022-09-09T07:46:08;18.80;99.90
2012;DHT22;1009;51.436;6.972;2022-09-09T07:48:35;18.70;99.90
2012;DHT22;1009;51.436;6.972;2022-09-09T07:51:07;18.80;99.90
2012;DHT22;1009;51.436;6.972;2022-09-09T07:53:37;18.80;99.90
2012;DHT22;1009;51.436;6.972;2022-09-09T07:56:07;18.90;99.90
2012;DHT22;1009;51.436;6.972;2022-09-09T07:58:35;18.90;99.90
2012;DHT22;1009;51.436;6.972;2022-09-09T08:01:07;18.80;99.90
2012;DHT22;1009;51.436;6.972;2022-09-09T08:03:36;18.70;99.90
2012;DHT22;1009;51.436;6.972;2022-09-09T08:06:05;18.60;99.90
2012;DHT22;1009;51.436;6.972;2022-09-09T08:08:33;18.60;99.90
2012;DHT22;1009;51.436;6.972;2022-09-09T08:11:07;18.60;99.90
2012;DHT22;1009;51.436;6.972;2022-09-09T08:13:35;18.60;99.90
2012;DHT22;1009;51.436;6.972;2022-09-09T08:16:07;18.70;99.90
2012;DHT22;1009;51.436;6.972;2022-09-09T08:18:34;18.60;99.90
2012;DHT22;1009;51.436;6.972;2022-09-09T08:21:10;18.50;99.90
2012;DHT22;1009;51.436;6.972;2022-09-09T08:23:38;18.50;99.90
2012;DHT22;1009;51.436;6.972;2022-09-09T08:26:11;18.50;99.90
2012;DHT22;1009;51.436;6.972;2022-09-09T08:28:38;18.70;99.90
2012;DHT22;1009;51.436;6.972;2022-09-09T08:31:11;18.90;99.90
2012;DHT22;1009;51.436;6.972;2022-09-09T08:33:39;18.90;99.90
2012;DHT22;1009;51.436;6.972;2022-09-09T08:36:08;18.90;99.90
2012;DHT22;1009;51.436;6.972;2022-09-09T08:38:36;19.00;99.90
2012;DHT22;1009;51.436;6.972;2022-09-09T08:44:14;19.50;99.90
2012;DHT22;1009;51.436;6.972;2022-09-09T08:46:50;19.70;99.90
2012;DHT22;1009;51.436;6.972;2022-09-09T08:49:50;20.00;99.90
2012;DHT22;1009;51.436;6.972;2022-09-09T08:52:25;20.30;99.90
2012;DHT22;1009;51.436;6.972;2022-09-09T08:54:59;20.40;99.90
2012;DHT22;1009;51.436;6.972;2022-09-09T08:57:30;20.30;99.90
2012;DHT22;1009;51.436;6.972;2022-09-09T08:59:58;20.30;99.90
2012;DHT22;1009;51.436;6.972;2022-09-09T09:02:30;20.20;99.90
2012;DHT22;1009;51.436;6.972;2022-09-09T09:05:09;20.00;99.90
2012;DHT22;1009;51.436;6.972;2022-09-09T09:07:49;20.10;99.90
2012;DHT22;1009;51.436;6.972;2022-09-09T09:10:36;20.20;99.90
2012;DHT22;1009;51.436;6.972;2022-09-09T09:13:16;20.20;99.90
2012;DHT22;1009;51.436;6.972;2022-09-09T09:15:46;20.40;99.90
2012;DHT22;1009;51.436;6.972;2022-09-09T09:18:17;20.50;99.90
2012;DHT22;1009;51.436;6.972;2022-09-09T09:20:50;20.40;99.90
2012;DHT22;1009;51.436;6.972;2022-09-09T09:23:23;20.20;99.90
2012;DHT22;1009;51.436;6.972;2022-09-09T09:25:52;20.00;99.90
2012;DHT22;1009;51.436;6.972;2022-09-09T09:28:26;19.80;99.90
2012;DHT22;1009;51.436;6.972;2022-09-09T09:30:55;19.70;99.90
2012;DHT22;1009;51.436;6.972;2022-09-09T09:33:27;19.60;99.90
2012;DHT22;1009;51.436;6.972;2022-09-09T09:35:57;19.70;99.90
2012;DHT22;1009;51.436;6.972;2022-09-09T09:38:26;19.60;99.90
2012;DHT22;1009;51.436;6.972;2022-09-09T09:40:55;19.50;99.90
2012;DHT22;1009;51.436;6.972;2022-09-09T09:43:27;19.50;99.90
2012;DHT22;1009;51.436;6.972;2022-09-09T09:45:55;19.50;99.90
2012;DHT22;1009;51.436;6.972;2022-09-09T09:48:23;19.50;99.90
2012;DHT22;1009;51.436;6.972;2022-09-09T09:50:52;19.50;99.90
2012;DHT22;1009;51.436;6.972;2022-09-09T09:53:22;19.50;99.90
2012;DHT22;1009;51.436;6.972;2022-09-09T09:55:54;19.50;99.90
2012;DHT22;1009;51.436;6.972;2022-09-09T09:58:24;19.60;99.90
2012;DHT22;1009;51.436;6.972;2022-09-09T10:00:52;19.50;99.90
2012;DHT22;1009;51.436;6.972;2022-09-09T10:03:26;19.50;99.90
2012;DHT22;1009;51.436;6.972;2022-09-09T10:05:53;19.40;99.90
2012;DHT22;1009;51.436;6.972;2022-09-09T10:08:22;19.40;99.90
2012;DHT22;1009;51.436;6.972;2022-09-09T10:11:04;19.40;99.90
2012;DHT22;1009;51.436;6.972;2022-09-09T10:13:39;19.40;99.90
2012;DHT22;1009;51.436;6.972;2022-09-09T10:16:21;19.40;99.90
2012;DHT22;1009;51.436;6.972;2022-09-09T10:18:59;19.50;99.90
2012;DHT22;1009;51.436;6.972;2022-09-09T10:21:47;20.00;99.90
2012;DHT22;1009;51.436;6.972;2022-09-09T10:24:36;20.50;99.90
2012;DHT22;1009;51.436;6.972;2022-09-09T10:27:17;21.20;99.90
2012;DHT22;1009;51.436;6.972;2022-09-09T10:30:12;21.60;99.90
2012;DHT22;1009;51.436;6.972;2022-09-09T10:32:46;21.70;99.90
2012;DHT22;1009;51.436;6.972;2022-09-09T10:35:29;21.40;99.90
2012;DHT22;1009;51.436;6.972;2022-09-09T10:38:11;21.00;99.90
2012;DHT22;1009;51.436;6.972;2022-09-09T10:40:46;20.70;99.90
2012;DHT22;1009;51.436;6.972;2022-09-09T10:43:25;20.50;99.90
2012;DHT22;1009;51.436;6.972;2022-09-09T10:46:03;20.50;99.90
2012;DHT22;1009;51.436;6.972;2022-09-09T10:48:43;20.40;99.90
2012;DHT22;1009;51.436;6.972;2022-09-09T10:51:22;20.50;99.90
2012;DHT22;1009;51.436;6.972;2022-09-09T10:54:02;20.60;99.90
2012;DHT22;1009;51.436;6.972;2022-09-09T10:56:31;20.50;99.90
2012;DHT22;1009;51.436;6.972;2022-09-09T10:59:02;20.40;99.90
2012;DHT22;1009;51.436;6.972;2022-09-09T11:01:37;20.30;99.90
2012;DHT22;1009;51.436;6.972;2022-09-09T11:04:15;20.20;99.90
2012;DHT22;1009;51.436;6.972;2022-09-09T11:06:49;20.30;99.90
2012;DHT22;1009;51.436;6.972;2022-09-09T11:09:23;20.20;99.90
2012;DHT22;1009;51.436;6.972;2022-09-09T11:11:53;20.00;99.90
2012;DHT22;1009;51.436;6.972;2022-09-09T11:14:26;19.90;99.90
2012;DHT22;1009;51.436;6.972;2022-09-09T11:17:00;19.80;99.90
2012;DHT22;1009;51.436;6.972;2022-09-09T11:19:31;19.70;99.90
2012;DHT22;1009;51.436;6.972;2022-09-09T11:22:02;19.80;99.90
2012;DHT22;1009;51.436;6.972;2022-09-09T11:24:33;20.10;99.90
2012;DHT22;1009;51.436;6.972;2022-09-09T11:27:05;20.50;99.90
2012;DHT22;1009;51.436;6.972;2022-09-09T11:29:59;20.60;99.90
2012;DHT22;1009;51.436;6.972;2022-09-09T11:35:38;20.60;99.90
2012;DHT22;1009;51.436;6.972;2022-09-09T11:38:18;20.60;99.90
2012;DHT22;1009;51.436;6.972;2022-09-09T11:40:47;20.60;99.90
2012;DHT22;1009;51.436;6.972;2022-09-09T11:43:17;20.60;99.90
2012;DHT22;1009;51.436;6.972;2022-09-09T11:45:51;20.50;99.90
2012;DHT22;1009;51.436;6.972;2022-09-09T11:48:32;20.50;99.90
2012;DHT22;1009;51.436;6.972;2022-09-09T11:51:04;20.40;99.90
2012;DHT22;1009;51.436;6.972;2022-09-09T11:53:33;20.30;99.90
2012;DHT22;1009;51.436;6.972;2022-09-09T11:56:09;20.20;99.90
2012;DHT22;1009;51.436;6.972;2022-09-09T11:58:44;20.00;99.90
2012;DHT22;1009;51.436;6.972;2022-09-09T12:01:40;20.00;99.90
2012;DHT22;1009;51.436;6.972;2022-09-09T12:04:17;20.00;99.90
2012;DHT22;1009;51.436;6.972;2022-09-09T12:06:52;20.00;99.90
2012;DHT22;1009;51.436;6.972;2022-09-09T12:09:27;20.10;99.90
2012;DHT22;1009;51.436;6.972;2022-09-09T12:12:06;20.20;99.90
2012;DHT22;1009;51.436;6.972;2022-09-09T12:14:38;20.30;99.90
2012;DHT22;1009;51.436;6.972;2022-09-09T12:17:17;20.50;99.90
2012;DHT22;1009;51.436;6.972;2022-09-09T12:19:45;20.60;99.90
2012;DHT22;1009;51.436;6.972;2022-09-09T12:22:20;20.60;99.90
2012;DHT22;1009;51.436;6.972;2022-09-09T12:24:57;20.70;99.90
2012;DHT22;1009;51.436;6.972;2022-09-09T12:27:30;20.60;99.90
2012;DHT22;1009;51.436;6.972;2022-09-09T12:30:03;20.50;99.90
2012;DHT22;1009;51.436;6.972;2022-09-09T12:32:30;20.40;99.90
2012;DHT22;1009;51.436;6.972;2022-09-09T12:34:59;20.30;99.90
2012;DHT22;1009;51.436;6.972;2022-09-09T12:37:32;20.30;99.90
2012;DHT22;1009;51.436;6.972;2022-09-09T12:40:02;20.30;99.90
2012;DHT22;1009;51.436;6.972;2022-09-09T12:42:30;20.60;99.90
2012;DHT22;1009;51.436;6.972;2022-09-09T12:44:59;20.80;99.90
2012;DHT22;1009;51.436;6.972;2022-09-09T12:47:36;20.90;99.90
2012;DHT22;1009;51.436;6.972;2022-09-09T12:50:05;20.90;99.90
2012;DHT22;1009;51.436;6.972;2022-09-09T12:52:35;20.80;99.90
2012;DHT22;1009;51.436;6.972;2022-09-09T12:55:05;20.70;99.90
2012;DHT22;1009;51.436;6.972;2022-09-09T12:57:36;20.60;99.90
2012;DHT22;1009;51.436;6.972;2022-09-09T13:00:11;20.50;99.90
2012;DHT22;1009;51.436;6.972;2022-09-09T13:02:47;20.30;99.90
2012;DHT22;1009;51.436;6.972;2022-09-09T13:05:18;20.30;99.90
2012;DHT22;1009;51.436;6.972;2022-09-09T13:07:47;20.10;99.90
2012;DHT22;1009;51.436;6.972;2022-09-09T13:10:15;20.00;99.90
2012;DHT22;1009;51.436;6.972;2022-09-09T13:12:45;19.90;99.90
2012;DHT22;1009;51.436;6.972;2022-09-09T13:15:19;19.60;99.90
2012;DHT22;1009;51.436;6.972;2022-09-09T13:17:52;19.20;99.90
2012;DHT22;1009;51.436;6.972;2022-09-09T13:20:21;19.00;99.90
2012;DHT22;1009;51.436;6.972;2022-09-09T13:22:50;18.70;99.90
2012;DHT22;1009;51.436;6.972;2022-09-09T13:25:21;18.60;99.90
2012;DHT22;1009;51.436;6.972;2022-09-09T13:27:57;18.40;99.90
2012;DHT22;1009;51.436;6.972;2022-09-09T13:30:29;18.30;99.90
2012;DHT22;1009;51.436;6.972;2022-09-09T13:33:04;18.30;99.90
2012;DHT22;1009;51.436;6.972;2022-09-09T13:35:46;18.30;99.90
2012;DHT22;1009;51.436;6.972;2022-09-09T13:38:15;18.30;99.90
2012;DHT22;1009;51.436;6.972;2022-09-09T13:40:52;18.30;99.90
2012;DHT22;1009;51.436;6.972;2022-09-09T13:43:22;18.30;99.90
2012;DHT22;1009;51.436;6.972;2022-09-09T13:45:55;18.40;99.90
2012;DHT22;1009;51.436;6.972;2022-09-09T13:48:23;18.40;99.90
2012;DHT22;1009;51.436;6.972;2022-09-09T13:50:58;18.50;99.90
2012;DHT22;1009;51.436;6.972;2022-09-09T13:53:27;18.70;99.90
2012;DHT22;1009;51.436;6.972;2022-09-09T13:55:54;18.80;99.90
2012;DHT22;1009;51.436;6.972;2022-09-09T13:58:22;19.00;99.90
2012;DHT22;1009;51.436;6.972;2022-09-09T14:00:51;19.20;99.90
2012;DHT22;1009;51.436;6.972;2022-09-09T14:03:25;19.40;99.90
2012;DHT22;1009;51.436;6.972;2022-09-09T14:05:53;19.70;99.90
2012;DHT22;1009;51.436;6.972;2022-09-09T14:08:25;19.80;99.90
2012;DHT22;1009;51.436;6.972;2022-09-09T14:10:53;20.00;99.90
2012;DHT22;1009;51.436;6.972;2022-09-09T14:13:24;20.20;99.90
2012;DHT22;1009;51.436;6.972;2022-09-09T14:15:54;20.20;99.90
2012;DHT22;1009;51.436;6.972;2022-09-09T14:18:28;20.20;99.90
2012;DHT22;1009;51.436;6.972;2022-09-09T14:20:54;20.10;99.90
2012;DHT22;1009;51.436;6.972;2022-09-09T14:23:23;20.00;99.90
2012;DHT22;1009;51.436;6.972;2022-09-09T14:25:50;20.00;99.90
2012;DHT22;1009;51.436;6.972;2022-09-09T14:28:19;19.90;99.90
2012;DHT22;1009;51.436;6.972;2022-09-09T14:30:45;19.90;99.90
2012;DHT22;1009;51.436;6.972;2022-09-09T14:33:14;19.80;99.90
2012;DHT22;1009;51.436;6.972;2022-09-09T14:35:41;19.80;99.90
2012;DHT22;1009;51.436;6.972;2022-09-09T14:38:08;19.60;99.90
2012;DHT22;1009;51.436;6.972;2022-09-09T14:40:38;19.50;99.90
2012;DHT22;1009;51.436;6.972;2022-09-09T14:43:05;19.50;99.90
2012;DHT22;1009;51.436;6.972;2022-09-09T14:45:35;19.50;99.90
2012;DHT22;1009;51.436;6.972;2022-09-09T14:48:03;19.40;99.90
2012;DHT22;1009;51.436;6.972;2022-09-09T14:50:30;19.40;99.90
2012;DHT22;1009;51.436;6.972;2022-09-09T14:52:57;19.20;99.90
2012;DHT22;1009;51.436;6.972;2022-09-09T14:55:23;19.20;99.90
2012;DHT22;1009;51.436;6.972;2022-09-09T14:57:53;19.00;99.90
2012;DHT22;1009;51.436;6.972;2022-09-09T15:00:20;18.70;99.90
2012;DHT22;1009;51.436;6.972;2022-09-09T15:02:52;18.10;99.90
2012;DHT22;1009;51.436;6.972;2022-09-09T15:05:19;17.60;99.90
2012;DHT22;1009;51.436;6.972;2022-09-09T15:07:45;17.30;99.90
2012;DHT22;1009;51.436;6.972;2022-09-09T15:10:12;17.10;99.90
2012;DHT22;1009;51.436;6.972;2022-09-09T15:12:39;17.10;99.90
2012;DHT22;1009;51.436;6.972;2022-09-09T15:15:08;17.10;99.90
2012;DHT22;1009;51.436;6.972;2022-09-09T15:17:35;17.10;99.90
2012;DHT22;1009;51.436;6.972;2022-09-09T15:20:04;17.10;99.90
2012;DHT22;1009;51.436;6.972;2022-09-09T15:22:33;17.00;99.90
2012;DHT22;1009;51.436;6.972;2022-09-09T15:25:02;17.00;99.90
2012;DHT22;1009;51.436;6.972;2022-09-09T15:27:29;17.00;99.90
2012;DHT22;1009;51.436;6.972;2022-09-09T15:29:56;16.90;99.90
2012;DHT22;1009;51.436;6.972;2022-09-09T15:32:24;17.00;99.90
2012;DHT22;1009;51.436;6.972;2022-09-09T15:34:51;17.00;99.90
2012;DHT22;1009;51.436;6.972;2022-09-09T15:37:20;17.10;99.90
2012;DHT22;1009;51.436;6.972;2022-09-09T15:39:47;17.10;99.90
2012;DHT22;1009;51.436;6.972;2022-09-09T15:42:14;17.00;99.90
2012;DHT22;1009;51.436;6.972;2022-09-09T15:44:41;17.10;99.90
2012;DHT22;1009;51.436;6.972;2022-09-09T15:47:10;17.20;99.90
2012;DHT22;1009;51.436;6.972;2022-09-09T15:49:38;17.30;99.90
2012;DHT22;1009;51.436;6.972;2022-09-09T15:52:05;17.30;99.90
2012;DHT22;1009;51.436;6.972;2022-09-09T15:54:35;17.30;99.90
2012;DHT22;1009;51.436;6.972;2022-09-09T15:57:10;17.40;99.90
2012;DHT22;1009;51.436;6.972;2022-09-09T15:59:38;17.40;99.90
2012;DHT22;1009;51.436;6.972;2022-09-09T16:02:05;17.40;99.90
2012;DHT22;1009;51.436;6.972;2022-09-09T16:04:32;17.30;99.90
2012;DHT22;1009;51.436;6.972;2022-09-09T16:07:01;17.40;99.90
2012;DHT22;1009;51.436;6.972;2022-09-09T16:09:29;17.40;99.90
2012;DHT22;1009;51.436;6.972;2022-09-09T16:11:58;17.40;99.90
2012;DHT22;1009;51.436;6.972;2022-09-09T16:14:26;17.40;99.90
2012;DHT22;1009;51.436;6.972;2022-09-09T16:16:53;17.30;99.90
2012;DHT22;1009;51.436;6.972;2022-09-09T16:19:20;17.40;99.90
2012;DHT22;1009;51.436;6.972;2022-09-09T16:21:48;17.40;99.90
2012;DHT22;1009;51.436;6.972;2022-09-09T16:24:18;17.50;99.90
2012;DHT22;1009;51.436;6.972;2022-09-09T16:26:49;17.50;99.90
2012;DHT22;1009;51.436;6.972;2022-09-09T16:29:19;17.50;99.90
2012;DHT22;1009;51.436;6.972;2022-09-09T16:31:48;17.50;99.90